Time;durP1;ratioP1;P1;durP2;ratioP2;P2;SDS_P1;SDS_P2;PMS_P1;PMS_P2;Temp;Humidity;BMP_temperature;BMP_pressure;BME280_temperature;BME280_humidity;BME280_pressure;Samples;Min_cycle;Max_cycle;Signal;HPM_P1;HPM_P2
2022/12/15 00:38:43;0.00;0.00;0.62;0.00;0.00;0.62;3.40;3.10;;;19.10;20.90;;;;;;2268392;61;20387;-63
2022/12/15 00:41:27;0.00;0.00;0.62;0.00;0.00;0.62;4.23;3.00;;;19.20;21.00;;;;;;2267011;61;20367;-60
2022/12/15 00:44:12;0.00;0.00;0.62;0.00;0.00;0.62;3.97;3.10;;;19.20;21.00;;;;;;2268090;61;20430;-61
2022/12/15 00:46:58;0.00;0.00;0.62;0.00;0.00;0.62;3.70;2.97;;;19.20;21.00;;;;;;2268016;61;20390;-64
2022/12/15 01:20:24;0.00;0.00;0.62;0.00;0.00;0.62;4.27;3.27;;;19.20;21.20;;;;;;2268796;61;20768;-66
2022/12/15 01:23:09;0.00;0.00;0.62;0.00;0.00;0.62;2.90;2.47;;;19.20;21.20;;;;;;2268725;61;20429;-66
2022/12/15 01:25:54;0.00;0.00;0.62;0.00;0.00;0.62;3.40;3.07;;;19.10;21.10;;;;;;2264311;61;20475;-66
2022/12/15 01:28:39;0.00;0.00;0.62;0.00;0.00;0.62;3.57;2.93;;;19.10;21.10;;;;;;2269021;61;20448;-68
2022/12/15 01:31:23;0.00;0.00;0.62;0.00;0.00;0.62;3.20;2.57;;;19.20;21.20;;;;;;2268292;61;20949;-68
2022/12/15 01:34:09;0.00;0.00;0.62;0.00;0.00;0.62;3.40;2.67;;;19.20;21.20;;;;;;2268068;61;20921;-66
2022/12/15 01:36:54;0.00;0.00;0.62;0.00;0.00;0.62;4.57;2.97;;;19.20;21.20;;;;;;2268829;61;20371;-67
2022/12/15 01:42:41;0.00;0.00;0.62;0.00;0.00;0.62;3.50;2.70;;;19.20;21.20;;;;;;2268876;61;20394;-67
2022/12/15 01:45:52;0.00;0.00;0.62;0.00;0.00;0.62;3.47;3.10;;;19.20;21.20;;;;;;2268838;61;20410;-69
2022/12/15 01:48:45;0.00;0.00;0.62;0.00;0.00;0.62;5.00;2.97;;;19.10;21.00;;;;;;2267920;61;20457;-69
2022/12/15 01:51:34;0.00;0.00;0.62;0.00;0.00;0.62;3.70;3.10;;;19.10;21.00;;;;;;2268781;61;20440;-67
2022/12/15 01:54:22;0.00;0.00;0.62;0.00;0.00;0.62;3.90;3.23;;;19.20;21.10;;;;;;2267476;61;20911;-66
2022/12/15 01:57:12;0.00;0.00;0.62;0.00;0.00;0.62;4.80;3.03;;;19.10;21.00;;;;;;2268914;61;20359;-68
2022/12/15 02:00:01;0.00;0.00;0.62;0.00;0.00;0.62;4.40;2.90;;;19.10;21.00;;;;;;2268509;61;20402;-67
2022/12/15 02:02:46;0.00;0.00;0.62;0.00;0.00;0.62;2.87;2.30;;;19.10;21.00;;;;;;2267447;61;20405;-69
2022/12/15 02:05:32;0.00;0.00;0.62;0.00;0.00;0.62;3.23;2.77;;;19.10;21.00;;;;;;2268634;61;20517;-68
2022/12/15 02:08:19;0.00;0.00;0.62;0.00;0.00;0.62;3.23;2.83;;;19.10;21.00;;;;;;2268550;61;20425;-67
2022/12/15 02:11:38;0.00;0.00;0.62;0.00;0.00;0.62;2.87;2.27;;;19.10;21.00;;;;;;2267968;61;20868;-65
2022/12/15 02:14:38;0.00;0.00;0.62;0.00;0.00;0.62;2.77;2.40;;;19.10;21.00;;;;;;2268636;61;20434;-67
2022/12/15 02:17:34;0.00;0.00;0.62;0.00;0.00;0.62;3.10;2.70;;;19.10;21.00;;;;;;2267421;61;20401;-68
2022/12/15 02:20:47;0.00;0.00;0.62;0.00;0.00;0.62;4.60;2.90;;;19.10;21.00;;;;;;2268555;61;20363;-67
2022/12/15 02:24:15;0.00;0.00;0.62;0.00;0.00;0.62;4.27;3.00;;;19.10;21.00;;;;;;2268243;61;20395;-68
2022/12/15 02:27:52;0.00;0.00;0.62;0.00;0.00;0.62;3.70;2.50;;;19.10;21.00;;;;;;2268541;61;20985;-68
2022/12/15 02:31:48;0.00;0.00;0.62;0.00;0.00;0.62;2.77;2.30;;;19.10;21.00;;;;;;2255134;61;20424;-68
2022/12/15 02:33:59;0.00;0.00;0.62;0.00;0.00;0.62;3.10;2.73;;;19.10;21.00;;;;;;2268388;61;20783;-66
2022/12/15 02:36:48;0.00;0.00;0.62;0.00;0.00;0.62;2.87;2.60;;;19.00;21.20;;;;;;2268674;61;20363;-64
2022/12/15 02:39:33;0.00;0.00;0.62;0.00;0.00;0.62;2.80;2.47;;;19.00;21.00;;;;;;2264114;61;20800;-66
2022/12/15 02:42:18;0.00;0.00;0.62;0.00;0.00;0.62;2.90;2.23;;;19.00;21.00;;;;;;2268378;61;20417;-66
2022/12/15 02:45:08;0.00;0.00;0.62;0.00;0.00;0.62;2.33;2.07;;;19.00;21.00;;;;;;2268674;61;20383;-65
2022/12/15 02:48:09;0.00;0.00;0.62;0.00;0.00;0.62;4.13;2.90;;;19.00;21.00;;;;;;2267519;61;20413;-68
2022/12/15 02:51:13;0.00;0.00;0.62;0.00;0.00;0.62;3.00;2.47;;;19.00;21.00;;;;;;2268691;61;20774;-66
2022/12/15 02:54:32;0.00;0.00;0.62;0.00;0.00;0.62;3.73;2.90;;;19.00;21.10;;;;;;2267178;61;20788;-68
2022/12/15 02:57:26;0.00;0.00;0.62;0.00;0.00;0.62;2.60;2.20;;;19.00;21.00;;;;;;2268551;61;20366;-68
2022/12/15 03:00:13;0.00;0.00;0.62;0.00;0.00;0.62;3.20;2.53;;;19.00;21.00;;;;;;2268281;61;20757;-67
2022/12/15 03:03:00;0.00;0.00;0.62;0.00;0.00;0.62;3.27;2.70;;;19.00;21.00;;;;;;2267594;61;20395;-67
2022/12/15 03:05:45;0.00;0.00;0.62;0.00;0.00;0.62;3.70;2.83;;;19.00;21.00;;;;;;2268532;61;20379;-67
2022/12/15 03:08:30;0.00;0.00;0.62;0.00;0.00;0.62;2.90;2.57;;;19.00;21.00;;;;;;2267274;61;20399;-69
2022/12/15 03:11:15;0.00;0.00;0.62;0.00;0.00;0.62;2.83;2.07;;;19.00;21.00;;;;;;2268313;61;20362;-67
2022/12/15 03:13:59;0.00;0.00;0.62;0.00;0.00;0.62;3.37;2.63;;;19.00;21.00;;;;;;2268509;61;20382;-65
2022/12/15 03:16:44;0.00;0.00;0.62;0.00;0.00;0.62;3.33;2.63;;;19.00;21.00;;;;;;2264037;61;20406;-65
2022/12/15 03:19:30;0.00;0.00;0.62;0.00;0.00;0.62;2.87;2.17;;;19.00;21.00;;;;;;2268391;61;20363;-65
2022/12/15 03:22:15;0.00;0.00;0.62;0.00;0.00;0.62;2.73;2.27;;;19.00;21.00;;;;;;2268438;61;20406;-66
2022/12/15 03:25:00;0.00;0.00;0.62;0.00;0.00;0.62;2.80;2.47;;;19.00;21.00;;;;;;2267620;61;20456;-65
2022/12/15 03:27:45;0.00;0.00;0.62;0.00;0.00;0.62;3.40;2.63;;;19.00;21.00;;;;;;2268346;61;20993;-68
2022/12/15 03:30:30;0.00;0.00;0.62;0.00;0.00;0.62;3.77;2.40;;;18.90;21.50;;;;;;2267335;61;20828;-65
2022/12/15 03:33:15;0.00;0.00;0.62;0.00;0.00;0.62;2.67;2.23;;;18.90;21.00;;;;;;2268284;61;20383;-67
2022/12/15 03:36:01;0.00;0.00;0.62;0.00;0.00;0.62;2.90;2.33;;;18.90;21.00;;;;;;2268475;61;20406;-68
2022/12/15 03:38:46;0.00;0.00;0.62;0.00;0.00;0.62;2.90;2.40;;;18.90;21.00;;;;;;2267004;61;20413;-68
2022/12/15 03:41:31;0.00;0.00;0.62;0.00;0.00;0.62;2.60;2.03;;;18.90;21.00;;;;;;2268490;61;20371;-64
2022/12/15 03:44:15;0.00;0.00;0.62;0.00;0.00;0.62;2.93;2.20;;;18.90;21.00;;;;;;2268179;61;20428;-65
2022/12/15 03:47:00;0.00;0.00;0.62;0.00;0.00;0.62;2.67;2.00;;;18.90;21.00;;;;;;2262165;61;20457;-67
2022/12/15 03:49:44;0.00;0.00;0.62;0.00;0.00;0.62;3.13;2.43;;;18.90;21.00;;;;;;2268139;61;20378;-67
2022/12/15 03:52:30;0.00;0.00;0.62;0.00;0.00;0.62;3.13;2.30;;;18.90;21.00;;;;;;2281731;57;20371;-66
2022/12/15 03:55:15;0.00;0.00;0.62;0.00;0.00;0.62;2.50;2.00;;;18.90;21.00;;;;;;2268357;61;20363;-67
2022/12/15 03:58:00;0.00;0.00;0.62;0.00;0.00;0.62;3.23;2.63;;;18.90;21.00;;;;;;2268606;61;20437;-65
2022/12/15 04:00:45;0.00;0.00;0.62;0.00;0.00;0.62;2.73;2.23;;;18.90;21.00;;;;;;2267234;61;20490;-68
2022/12/15 04:03:29;0.00;0.00;0.62;0.00;0.00;0.62;2.83;2.33;;;18.90;21.00;;;;;;2268383;61;20436;-66
2022/12/15 04:06:14;0.00;0.00;0.62;0.00;0.00;0.62;3.77;2.23;;;18.90;21.00;;;;;;2264990;61;20390;-67
2022/12/15 04:09:00;0.00;0.00;0.62;0.00;0.00;0.62;3.00;2.60;;;18.90;21.00;;;;;;2267235;61;20436;-67
2022/12/15 04:11:45;0.00;0.00;0.62;0.00;0.00;0.62;3.37;2.30;;;18.90;21.00;;;;;;2268467;61;20399;-67
2022/12/15 04:14:29;0.00;0.00;0.62;0.00;0.00;0.62;2.67;2.00;;;18.90;21.00;;;;;;2267957;61;20382;-67
2022/12/15 04:17:14;0.00;0.00;0.62;0.00;0.00;0.62;3.00;2.30;;;18.90;21.10;;;;;;2264907;61;20375;-70
2022/12/15 04:20:08;0.00;0.00;0.62;0.00;0.00;0.62;3.13;2.63;;;18.90;21.10;;;;;;2268336;61;20791;-67
2022/12/15 04:22:53;0.00;0.00;0.62;0.00;0.00;0.62;3.07;2.47;;;18.80;21.00;;;;;;2266755;61;20442;-68
2022/12/15 05:33:04;0.00;0.00;0.62;0.00;0.00;0.62;2.93;2.30;;;18.70;21.50;;;;;;2268572;61;20386;-64
2022/12/15 05:35:49;0.00;0.00;0.62;0.00;0.00;0.62;4.00;2.70;;;18.70;21.40;;;;;;2268455;61;20806;-66
2022/12/15 05:38:34;0.00;0.00;0.62;0.00;0.00;0.62;3.20;2.80;;;18.70;21.40;;;;;;2268347;61;20767;-64
2022/12/15 05:41:19;0.00;0.00;0.62;0.00;0.00;0.62;2.77;2.40;;;18.70;21.40;;;;;;2268749;61;20406;-66
2022/12/15 05:44:06;0.00;0.00;0.62;0.00;0.00;0.62;2.67;2.10;;;18.70;21.40;;;;;;2264194;61;20478;-63
2022/12/15 05:46:51;0.00;0.00;0.62;0.00;0.00;0.62;2.67;1.97;;;18.70;21.40;;;;;;2265394;61;20387;-64
2022/12/15 05:49:35;0.00;0.00;0.62;0.00;0.00;0.62;3.10;2.17;;;18.70;21.30;;;;;;2268880;61;20367;-64
2022/12/15 05:52:20;0.00;0.00;0.62;0.00;0.00;0.62;2.60;2.10;;;18.80;21.30;;;;;;2267405;61;20482;-62
2022/12/15 05:55:06;0.00;0.00;0.62;0.00;0.00;0.62;4.27;2.30;;;18.80;21.90;;;;;;2268836;61;20451;-66
2022/12/15 05:57:51;0.00;0.00;0.62;0.00;0.00;0.62;3.30;2.50;;;18.80;21.30;;;;;;2268484;61;20903;-64
2022/12/15 06:00:37;0.00;0.00;0.62;0.00;0.00;0.62;2.80;2.30;;;18.80;21.30;;;;;;2264657;61;20362;-64
2022/12/15 06:03:22;0.00;0.00;0.62;0.00;0.00;0.62;3.57;2.87;;;18.80;21.30;;;;;;2268633;61;20391;-64
2022/12/15 06:06:09;0.00;0.00;0.62;0.00;0.00;0.62;2.80;2.37;;;18.80;21.30;;;;;;2267493;61;20374;-67
2022/12/15 06:08:53;0.00;0.00;0.62;0.00;0.00;0.62;3.83;2.93;;;18.80;21.30;;;;;;2268534;61;20764;-65
2022/12/15 06:11:38;0.00;0.00;0.62;0.00;0.00;0.62;2.83;2.27;;;18.80;21.30;;;;;;2265683;61;20363;-64
2022/12/15 06:14:23;0.00;0.00;0.62;0.00;0.00;0.62;2.60;2.10;;;18.80;21.20;;;;;;2267170;61;20480;-64
2022/12/15 06:17:09;0.00;0.00;0.62;0.00;0.00;0.62;2.43;2.10;;;18.80;21.20;;;;;;2268868;61;20363;-66
2022/12/15 06:19:53;0.00;0.00;0.62;0.00;0.00;0.62;2.47;2.10;;;18.80;21.20;;;;;;2268463;61;20903;-63
2022/12/15 06:22:38;0.00;0.00;0.62;0.00;0.00;0.62;3.60;2.60;;;18.80;21.10;;;;;;2267901;61;20770;-65
2022/12/15 06:25:23;0.00;0.00;0.62;0.00;0.00;0.62;3.27;2.30;;;18.80;21.70;;;;;;2268695;61;20364;-63
2022/12/15 06:28:08;0.00;0.00;0.62;0.00;0.00;0.62;2.73;2.30;;;18.80;21.30;;;;;;2267366;61;20870;-66
2022/12/15 06:30:54;0.00;0.00;0.62;0.00;0.00;0.62;2.60;2.13;;;18.80;21.30;;;;;;2268523;61;20905;-65
2022/12/15 06:33:40;0.00;0.00;0.62;0.00;0.00;0.62;3.17;2.20;;;18.80;21.20;;;;;;2268582;61;20430;-63
2022/12/15 06:36:25;0.00;0.00;0.62;0.00;0.00;0.62;4.23;2.13;;;18.80;21.70;;;;;;2267087;61;20363;-66
2022/12/15 06:39:12;0.00;0.00;0.62;0.00;0.00;0.62;4.23;2.43;;;18.80;21.20;;;;;;2268746;61;20417;-63
2022/12/15 06:41:57;0.00;0.00;0.62;0.00;0.00;0.62;2.30;1.97;;;18.90;21.20;;;;;;2268373;61;20363;-68
2022/12/15 06:44:41;0.00;0.00;0.62;0.00;0.00;0.62;3.10;2.20;;;18.90;21.20;;;;;;2267617;61;20452;-65
2022/12/15 06:47:26;0.00;0.00;0.62;0.00;0.00;0.62;3.00;2.00;;;18.90;21.20;;;;;;2268679;61;20981;-65
2022/12/15 06:50:12;0.00;0.00;0.62;0.00;0.00;0.62;4.70;2.60;;;18.90;21.10;;;;;;2264570;61;20459;-63
2022/12/15 06:52:58;0.00;0.00;0.62;0.00;0.00;0.62;2.63;2.10;;;18.80;21.00;;;;;;2265127;61;20391;-64
2022/12/15 06:55:44;0.00;0.00;0.62;0.00;0.00;0.62;3.97;2.67;;;18.90;21.00;;;;;;2268626;61;20398;-64
2022/12/15 06:58:29;0.00;0.00;0.62;0.00;0.00;0.62;2.63;2.00;;;18.80;20.90;;;;;;2267075;61;20898;-64
2022/12/15 07:01:15;0.00;0.00;0.62;0.00;0.00;0.62;2.77;2.00;;;18.90;21.50;;;;;;2268645;61;20362;-65
2022/12/15 07:04:01;0.00;0.00;0.62;0.00;0.00;0.62;2.20;1.93;;;18.90;21.00;;;;;;2268380;61;20530;-65
2022/12/15 07:06:48;0.00;0.00;0.62;0.00;0.00;0.62;2.10;1.73;;;18.90;21.00;;;;;;2267546;61;20914;-65
2022/12/15 07:09:32;0.00;0.00;0.62;0.00;0.00;0.62;3.50;2.67;;;18.90;20.90;;;;;;2268446;61;20363;-67
2022/12/15 07:12:17;0.00;0.00;0.62;0.00;0.00;0.62;3.07;2.37;;;18.80;20.80;;;;;;2267820;61;20929;-66
2022/12/15 07:15:03;0.00;0.00;0.62;0.00;0.00;0.62;2.43;2.23;;;18.90;20.90;;;;;;2268551;61;20441;-64
2022/12/15 07:17:48;0.00;0.00;0.62;0.00;0.00;0.62;3.33;1.73;;;18.90;20.90;;;;;;2268660;61;20798;-65
2022/12/15 07:20:33;0.00;0.00;0.62;0.00;0.00;0.62;3.27;2.50;;;18.90;20.80;;;;;;2267037;61;20405;-62
2022/12/15 07:23:19;0.00;0.00;0.62;0.00;0.00;0.62;4.17;2.70;;;18.80;20.80;;;;;;2268456;61;20387;-64
2022/12/15 07:26:04;0.00;0.00;0.62;0.00;0.00;0.62;2.63;1.77;;;18.80;20.80;;;;;;2268337;61;20517;-64
2022/12/15 07:28:50;0.00;0.00;0.62;0.00;0.00;0.62;2.33;1.63;;;18.80;20.80;;;;;;2264230;61;20374;-64
2022/12/15 07:31:35;0.00;0.00;0.62;0.00;0.00;0.62;3.00;2.10;;;18.80;20.70;;;;;;2268395;61;20375;-66
2022/12/15 07:34:19;0.00;0.00;0.62;0.00;0.00;0.62;2.90;2.20;;;18.80;20.70;;;;;;2268067;61;20386;-65
2022/12/15 07:37:04;0.00;0.00;0.62;0.00;0.00;0.62;2.77;2.10;;;18.80;20.70;;;;;;2268242;61;20445;-61
2022/12/15 07:39:50;0.00;0.00;0.62;0.00;0.00;0.62;2.93;2.03;;;18.80;20.70;;;;;;2268229;61;20413;-64
2022/12/15 07:42:34;0.00;0.00;0.62;0.00;0.00;0.62;2.53;2.00;;;18.80;20.70;;;;;;2266989;61;20895;-65
2022/12/15 07:45:20;0.00;0.00;0.62;0.00;0.00;0.62;2.10;1.73;;;18.80;20.70;;;;;;2268453;61;20826;-65
2022/12/15 07:48:05;0.00;0.00;0.62;0.00;0.00;0.62;2.50;1.80;;;18.80;20.70;;;;;;2268210;61;20430;-63
2022/12/15 07:50:55;0.00;0.00;0.62;0.00;0.00;0.62;2.47;2.03;;;18.80;20.70;;;;;;2267233;61;20371;-63
2022/12/15 07:53:40;0.00;0.00;0.62;0.00;0.00;0.62;2.30;1.90;;;18.80;21.20;;;;;;2268054;61;20426;-65
2022/12/15 07:56:26;0.00;0.00;0.62;0.00;0.00;0.62;2.43;1.90;;;18.80;20.70;;;;;;2264917;61;20398;-63
2022/12/15 07:59:11;0.00;0.00;0.62;0.00;0.00;0.62;3.10;2.20;;;18.80;20.70;;;;;;2267951;61;20513;-62
2022/12/15 08:01:55;0.00;0.00;0.62;0.00;0.00;0.62;2.83;2.10;;;18.80;20.60;;;;;;2268360;61;20451;-63
2022/12/15 08:04:40;0.00;0.00;0.62;0.00;0.00;0.62;2.60;2.20;;;18.80;20.60;;;;;;2267101;61;20828;-67
2022/12/15 08:07:25;0.00;0.00;0.62;0.00;0.00;0.62;2.33;2.10;;;18.70;20.60;;;;;;2268387;61;20413;-65
2022/12/15 08:10:09;0.00;0.00;0.62;0.00;0.00;0.62;2.50;1.80;;;18.80;20.60;;;;;;2268338;61;20363;-68
2022/12/15 08:12:55;0.00;0.00;0.62;0.00;0.00;0.62;3.07;2.60;;;18.80;20.60;;;;;;2267048;61;20517;-64
2022/12/15 08:15:40;0.00;0.00;0.62;0.00;0.00;0.62;2.30;1.83;;;18.70;20.60;;;;;;2268326;61;20788;-67
2022/12/15 08:18:25;0.00;0.00;0.62;0.00;0.00;0.62;3.03;1.73;;;18.70;20.50;;;;;;2268124;61;20846;-64
2022/12/15 08:21:10;0.00;0.00;0.62;0.00;0.00;0.62;2.30;1.80;;;18.70;20.60;;;;;;2267572;61;20501;-64
2022/12/15 08:23:55;0.00;0.00;0.62;0.00;0.00;0.62;2.83;1.83;;;18.70;20.60;;;;;;2268288;61;20429;-63
2022/12/15 08:26:42;0.00;0.00;0.62;0.00;0.00;0.62;2.97;1.83;;;18.70;20.70;;;;;;2267245;61;20998;-63
2022/12/15 08:29:28;0.00;0.00;0.62;0.00;0.00;0.62;2.10;1.60;;;18.70;20.90;;;;;;2268377;61;20378;-64
2022/12/15 08:32:13;0.00;0.00;0.62;0.00;0.00;0.62;2.57;1.83;;;18.70;21.00;;;;;;2268305;61;20359;-62
2022/12/15 08:34:58;0.00;0.00;0.62;0.00;0.00;0.62;2.20;1.60;;;18.70;21.10;;;;;;2267086;61;20367;-62
2022/12/15 08:37:42;0.00;0.00;0.62;0.00;0.00;0.62;2.97;2.03;;;18.70;21.20;;;;;;2268410;61;20870;-64
2022/12/15 08:40:27;0.00;0.00;0.62;0.00;0.00;0.62;2.37;1.70;;;18.70;21.30;;;;;;2268474;61;20358;-65
2022/12/15 08:43:11;0.00;0.00;0.62;0.00;0.00;0.62;2.50;1.70;;;18.80;21.40;;;;;;2267261;61;20383;-63
2022/12/15 08:45:59;0.00;0.00;0.62;0.00;0.00;0.62;2.27;1.83;;;18.70;21.40;;;;;;2265135;61;20788;-63
2022/12/15 08:48:44;0.00;0.00;0.62;0.00;0.00;0.62;2.30;1.70;;;18.80;21.50;;;;;;2267256;61;20417;-64
2022/12/15 08:51:31;0.00;0.00;0.62;0.00;0.00;0.62;2.37;1.60;;;18.70;21.40;;;;;;2264980;61;20443;-63
2022/12/15 08:54:18;0.00;0.00;0.62;0.00;0.00;0.62;2.50;1.80;;;18.80;21.50;;;;;;2265265;61;20918;-65
2022/12/15 08:57:03;0.00;0.00;0.62;0.00;0.00;0.62;3.03;2.30;;;18.80;22.00;;;;;;2267009;61;20356;-63
2022/12/15 08:59:48;0.00;0.00;0.62;0.00;0.00;0.62;2.53;1.70;;;18.80;21.50;;;;;;2268189;61;20756;-63
2022/12/15 09:02:34;0.00;0.00;0.62;0.00;0.00;0.62;2.70;1.80;;;18.80;21.40;;;;;;2268297;61;20367;-64
2022/12/15 09:05:19;0.00;0.00;0.62;0.00;0.00;0.62;2.13;1.67;;;18.90;21.40;;;;;;2267182;61;20347;-62
2022/12/15 09:08:05;0.00;0.00;0.62;0.00;0.00;0.62;2.53;2.07;;;18.90;21.50;;;;;;2265107;61;20362;-68
2022/12/15 09:10:50;0.00;0.00;0.62;0.00;0.00;0.62;2.67;2.10;;;18.90;21.40;;;;;;2267397;61;20366;-61
2022/12/15 09:13:35;0.00;0.00;0.62;0.00;0.00;0.62;3.07;1.70;;;18.90;21.50;;;;;;2268226;61;20849;-62
2022/12/15 09:16:20;0.00;0.00;0.62;0.00;0.00;0.62;2.60;1.60;;;18.90;21.50;;;;;;2268559;61;20444;-63
2022/12/15 09:19:08;0.00;0.00;0.62;0.00;0.00;0.62;2.17;1.50;;;19.00;21.60;;;;;;2267594;61;20363;-65
2022/12/15 09:21:53;0.00;0.00;0.62;0.00;0.00;0.62;2.43;1.80;;;19.00;21.50;;;;;;2268641;61;20827;-66
2022/12/15 09:24:37;0.00;0.00;0.62;0.00;0.00;0.62;2.50;1.73;;;19.00;21.50;;;;;;2269018;61;20386;-66
2022/12/15 09:27:22;0.00;0.00;0.62;0.00;0.00;0.62;2.63;2.23;;;19.00;21.50;;;;;;2267614;61;20420;-65
2022/12/15 09:30:09;0.00;0.00;0.62;0.00;0.00;0.62;2.20;1.60;;;19.00;21.50;;;;;;2268797;61;20378;-63
2022/12/15 09:32:54;0.00;0.00;0.62;0.00;0.00;0.62;2.50;1.67;;;19.00;21.50;;;;;;2268267;61;20493;-68
2022/12/15 09:35:40;0.00;0.00;0.62;0.00;0.00;0.62;2.30;2.00;;;19.10;21.50;;;;;;2268854;61;20417;-62
2022/12/15 09:38:25;0.00;0.00;0.62;0.00;0.00;0.62;2.50;1.63;;;19.10;21.50;;;;;;2268864;61;20417;-60
2022/12/15 09:41:21;0.00;0.00;0.62;0.00;0.00;0.62;2.20;1.60;;;19.20;21.60;;;;;;2267458;61;20343;-63
2022/12/15 09:44:13;0.00;0.00;0.62;0.00;0.00;0.62;2.00;1.47;;;19.10;21.60;;;;;;2265436;61;20970;-65
2022/12/15 09:47:14;0.00;0.00;0.62;0.00;0.00;0.62;2.33;1.80;;;19.20;21.80;;;;;;2268943;61;20455;-63
2022/12/15 09:50:03;0.00;0.00;0.62;0.00;0.00;0.62;2.73;1.90;;;19.20;21.90;;;;;;2267942;61;20795;-62
2022/12/15 09:52:52;0.00;0.00;0.62;0.00;0.00;0.62;3.10;2.17;;;19.20;22.10;;;;;;2268783;61;20455;-65
2022/12/15 09:55:38;0.00;0.00;0.62;0.00;0.00;0.62;2.20;1.80;;;19.30;22.20;;;;;;2267275;61;20412;-64
2022/12/15 09:58:40;0.00;0.00;0.62;0.00;0.00;0.62;2.30;1.80;;;19.30;22.20;;;;;;2269010;61;20429;-64
2022/12/15 10:01:33;0.00;0.00;0.62;0.00;0.00;0.62;2.63;2.13;;;19.30;22.40;;;;;;2268510;61;20764;-65
2022/12/15 10:04:29;0.00;0.00;0.62;0.00;0.00;0.62;2.10;1.60;;;19.40;23.10;;;;;;2267877;61;20387;-61
2022/12/15 10:07:26;0.00;0.00;0.62;0.00;0.00;0.62;2.33;1.70;;;19.40;22.60;;;;;;2268423;61;20382;-63
2022/12/15 10:10:21;0.00;0.00;0.62;0.00;0.00;0.62;2.03;1.37;;;19.50;22.80;;;;;;2267491;61;20359;-64
2022/12/15 10:13:23;0.00;0.00;0.62;0.00;0.00;0.62;2.23;1.50;;;19.60;23.40;;;;;;2268724;61;20379;-65
2022/12/15 10:16:21;0.00;0.00;0.62;0.00;0.00;0.62;2.40;1.80;;;19.60;22.90;;;;;;2268653;61;20359;-63
2022/12/15 10:19:12;0.00;0.00;0.62;0.00;0.00;0.62;2.40;1.80;;;19.70;22.90;;;;;;2267570;61;20875;-63
2022/12/15 10:21:58;0.00;0.00;0.62;0.00;0.00;0.62;1.83;1.50;;;19.80;22.90;;;;;;2268744;61;20359;-61
2022/12/15 10:24:42;0.00;0.00;0.62;0.00;0.00;0.62;2.90;1.90;;;19.80;22.80;;;;;;2268040;61;20382;-61
2022/12/15 10:27:50;0.00;0.00;0.62;0.00;0.00;0.62;2.37;1.60;;;19.90;22.80;;;;;;2268063;61;20429;-62
2022/12/15 10:30:39;0.00;0.00;0.62;0.00;0.00;0.62;2.03;1.50;;;20.00;22.80;;;;;;2268492;61;20362;-63
2022/12/15 10:33:25;0.00;0.00;0.62;0.00;0.00;0.62;2.67;1.73;;;20.00;22.80;;;;;;2267422;61;20382;-60
2022/12/15 10:36:13;0.00;0.00;0.62;0.00;0.00;0.62;2.27;1.57;;;20.00;22.90;;;;;;2268694;61;20359;-63
2022/12/15 10:38:58;0.00;0.00;0.62;0.00;0.00;0.62;2.30;1.47;;;20.10;23.40;;;;;;2268379;61;20386;-64
2022/12/15 10:41:43;0.00;0.00;0.62;0.00;0.00;0.62;1.80;1.47;;;20.20;22.90;;;;;;2267884;61;20367;-62
2022/12/15 10:44:36;0.00;0.00;0.62;0.00;0.00;0.62;2.10;1.50;;;20.20;22.80;;;;;;2265365;61;20403;-65
2022/12/15 10:47:27;0.00;0.00;0.62;0.00;0.00;0.62;1.90;1.17;;;20.20;22.70;;;;;;2267198;61;20441;-65
2022/12/15 10:50:20;0.00;0.00;0.62;0.00;0.00;0.62;2.20;1.30;;;20.30;22.70;;;;;;2268070;61;20395;-64
2022/12/15 10:53:08;0.00;0.00;0.62;0.00;0.00;0.62;2.00;1.50;;;20.30;22.70;;;;;;2268311;61;20378;-61
2022/12/15 10:56:00;0.00;0.00;0.62;0.00;0.00;0.62;2.30;1.53;;;20.30;22.60;;;;;;2267471;61;20546;-65
2022/12/15 10:58:49;0.00;0.00;0.62;0.00;0.00;0.62;2.10;1.47;;;20.40;22.60;;;;;;2268573;61;20898;-63
2022/12/15 11:01:35;0.00;0.00;0.62;0.00;0.00;0.62;2.13;1.40;;;20.40;22.50;;;;;;2268469;61;20408;-61
2022/12/15 11:04:26;0.00;0.00;0.62;0.00;0.00;0.62;2.03;1.70;;;20.50;22.60;;;;;;2268323;61;20379;-62
2022/12/15 11:07:13;0.00;0.00;0.62;0.00;0.00;0.62;1.97;1.10;;;20.50;22.50;;;;;;2268632;61;20475;-64
2022/12/15 11:09:59;0.00;0.00;0.62;0.00;0.00;0.62;2.10;1.50;;;20.60;22.50;;;;;;2267343;61;20886;-61
2022/12/15 11:12:54;0.00;0.00;0.62;0.00;0.00;0.62;2.40;1.30;;;20.60;22.40;;;;;;2268367;61;20406;-64
2022/12/15 11:15:44;0.00;0.00;0.62;0.00;0.00;0.62;1.80;1.30;;;20.70;22.50;;;;;;2268562;61;20532;-64
2022/12/15 11:18:41;0.00;0.00;0.62;0.00;0.00;0.62;2.67;1.37;;;20.70;22.40;;;;;;2267725;61;20390;-63
2022/12/15 11:21:28;0.00;0.00;0.62;0.00;0.00;0.62;1.90;1.30;;;20.80;22.40;;;;;;2268395;61;20405;-63
2022/12/15 11:24:17;0.00;0.00;0.62;0.00;0.00;0.62;2.23;1.50;;;20.90;22.40;;;;;;2267157;61;20995;-63
2022/12/15 11:27:14;0.00;0.00;0.62;0.00;0.00;0.62;3.20;1.33;;;20.90;22.30;;;;;;2268384;61;20387;-64
2022/12/15 11:30:10;0.00;0.00;0.62;0.00;0.00;0.62;3.10;1.40;;;21.00;22.30;;;;;;2268533;61;20402;-65
2022/12/15 11:32:59;0.00;0.00;0.62;0.00;0.00;0.62;2.57;1.30;;;21.00;22.20;;;;;;2267010;61;20379;-61
2022/12/15 11:35:59;0.00;0.00;0.62;0.00;0.00;0.62;1.70;1.13;;;21.10;22.20;;;;;;2268441;61;20359;-64
2022/12/15 11:38:49;0.00;0.00;0.62;0.00;0.00;0.62;2.10;1.33;;;21.10;22.10;;;;;;2267919;61;20421;-63
2022/12/15 11:41:43;0.00;0.00;0.62;0.00;0.00;0.62;1.80;1.30;;;21.20;22.10;;;;;;2268351;61;20790;-63
2022/12/15 11:44:38;0.00;0.00;0.62;0.00;0.00;0.62;1.80;1.30;;;21.20;22.00;;;;;;2268422;61;20926;-65
2022/12/15 11:47:33;0.00;0.00;0.62;0.00;0.00;0.62;1.90;1.40;;;21.20;22.00;;;;;;2267100;61;20827;-63
2022/12/15 11:50:27;0.00;0.00;0.62;0.00;0.00;0.62;1.80;1.20;;;21.20;21.90;;;;;;2268408;61;20355;-64
2022/12/15 11:53:46;0.00;0.00;0.62;0.00;0.00;0.62;1.90;1.20;;;21.20;21.90;;;;;;2267971;61;20378;-61
2022/12/15 11:56:36;0.00;0.00;0.62;0.00;0.00;0.62;2.63;1.20;;;21.20;22.30;;;;;;2268512;61;20455;-64
2022/12/15 11:59:47;0.00;0.00;0.62;0.00;0.00;0.62;2.40;1.40;;;21.20;21.80;;;;;;2268612;61;20359;-64
2022/12/15 12:03:19;0.00;0.00;0.62;0.00;0.00;0.62;1.70;1.33;;;21.30;21.80;;;;;;2267110;61;20418;-64
2022/12/15 12:06:12;0.00;0.00;0.62;0.00;0.00;0.62;2.20;1.57;;;21.30;21.80;;;;;;2255393;61;20942;-62
2022/12/15 12:09:28;0.00;0.00;0.62;0.00;0.00;0.62;1.93;1.40;;;21.30;21.80;;;;;;2265829;61;20954;-62
2022/12/15 12:12:24;0.00;0.00;0.62;0.00;0.00;0.62;2.33;2.10;;;21.30;21.80;;;;;;2268224;61;20925;-65
2022/12/15 12:15:26;0.00;0.00;0.62;0.00;0.00;0.62;2.90;2.33;;;21.30;21.90;;;;;;2268310;61;20363;-61
2022/12/15 12:18:20;0.00;0.00;0.62;0.00;0.00;0.62;4.20;2.73;;;21.30;22.00;;;;;;2268083;61;20472;-62
2022/12/15 12:21:10;0.00;0.00;0.62;0.00;0.00;0.62;3.87;3.07;;;21.30;22.10;;;;;;2268003;61;20363;-65
2022/12/15 12:24:01;0.00;0.00;0.62;0.00;0.00;0.62;4.50;4.10;;;21.30;22.20;;;;;;2267233;61;20504;-62
2022/12/15 12:26:54;0.00;0.00;0.62;0.00;0.00;0.62;4.67;4.27;;;21.30;22.20;;;;;;2268526;61;20896;-65
2022/12/15 12:29:45;0.00;0.00;0.62;0.00;0.00;0.62;5.40;4.90;;;21.40;22.90;;;;;;2268384;61;20443;-65
2022/12/15 12:32:42;0.00;0.00;0.62;0.00;0.00;0.62;4.80;4.40;;;21.40;22.40;;;;;;2267423;61;20772;-64
2022/12/15 12:35:36;0.00;0.00;0.62;0.00;0.00;0.62;6.63;4.83;;;21.40;22.40;;;;;;2268378;61;20359;-63
2022/12/15 12:38:27;0.00;0.00;0.62;0.00;0.00;0.62;4.87;4.27;;;21.40;22.50;;;;;;2267144;61;20359;-63
2022/12/15 12:41:23;0.00;0.00;0.62;0.00;0.00;0.62;5.67;4.77;;;21.40;22.40;;;;;;2268454;61;20490;-63
2022/12/15 12:44:16;0.00;0.00;0.62;0.00;0.00;0.62;4.67;4.17;;;21.50;22.40;;;;;;2268213;61;20445;-64
2022/12/15 12:47:13;0.00;0.00;0.62;0.00;0.00;0.62;4.30;3.90;;;21.50;22.50;;;;;;2267025;61;20379;-64
2022/12/15 12:50:02;0.00;0.00;0.62;0.00;0.00;0.62;4.23;3.83;;;21.50;23.00;;;;;;2268298;61;20358;-67
2022/12/15 12:52:50;0.00;0.00;0.62;0.00;0.00;0.62;3.83;3.43;;;21.50;22.60;;;;;;2268203;61;20445;-63
2022/12/15 12:55:40;0.00;0.00;0.62;0.00;0.00;0.62;3.27;2.87;;;21.50;22.70;;;;;;2268991;61;20382;-61
2022/12/15 12:58:36;0.00;0.00;0.62;0.00;0.00;0.62;4.33;3.80;;;21.60;22.80;;;;;;2268986;61;20917;-60
2022/12/15 13:01:30;0.00;0.00;0.62;0.00;0.00;0.62;4.00;3.23;;;21.60;23.30;;;;;;2267746;61;20882;-62
2022/12/15 13:04:39;0.00;0.00;0.62;0.00;0.00;0.62;4.17;3.50;;;21.60;22.80;;;;;;2269113;61;20792;-65
2022/12/15 13:07:33;0.00;0.00;0.62;0.00;0.00;0.62;3.50;3.20;;;21.60;22.90;;;;;;2268420;61;20391;-64
2022/12/15 13:10:21;0.00;0.00;0.62;0.00;0.00;0.62;3.47;3.03;;;21.60;22.90;;;;;;2269147;61;20428;-64
2022/12/15 13:13:35;0.00;0.00;0.62;0.00;0.00;0.62;3.53;2.70;;;21.60;23.40;;;;;;2268655;61;20382;-64
2022/12/15 13:16:24;0.00;0.00;0.62;0.00;0.00;0.62;3.83;2.43;;;21.60;22.90;;;;;;2267901;61;20363;-64
2022/12/15 13:19:11;0.00;0.00;0.62;0.00;0.00;0.62;3.30;3.00;;;21.60;22.90;;;;;;2268896;61;20421;-63
2022/12/15 13:21:56;0.00;0.00;0.62;0.00;0.00;0.62;3.30;2.60;;;21.70;23.00;;;;;;2268410;61;20412;-64
2022/12/15 13:24:46;0.00;0.00;0.62;0.00;0.00;0.62;2.60;2.10;;;21.70;23.00;;;;;;2268222;61;20929;-65
2022/12/15 13:27:35;0.00;0.00;0.62;0.00;0.00;0.62;2.63;2.20;;;21.70;22.90;;;;;;2268870;61;20925;-60